createdAt,value
2023-05-10T00:00:47.415Z,80.08
2023-05-10T00:01:47.438Z,79.47
2023-05-10T00:02:47.516Z,79.38
2023-05-10T00:03:47.416Z,79.47
2023-05-10T00:04:47.346Z,79.78
2023-05-10T00:05:47.332Z,79.47
2023-05-10T00:06:47.314Z,79.78
2023-05-10T00:07:47.326Z,79.58
2023-05-10T00:08:47.337Z,79.47
2023-05-10T00:09:47.270Z,79.88
2023-05-10T00:10:47.258Z,80.08
2023-05-10T00:11:47.239Z,80.90
2023-05-10T00:12:47.288Z,80.49
2023-05-10T00:13:47.247Z,80.49
2023-05-10T00:14:47.207Z,81.10
2023-05-10T00:15:47.228Z,81.50
2023-05-10T00:16:47.314Z,81.40
2023-05-10T00:17:47.227Z,81.10
2023-05-10T00:18:47.164Z,80.99
2023-05-10T00:19:47.244Z,80.39
2023-05-10T00:20:47.146Z,80.39
2023-05-10T00:21:47.152Z,80.43
2023-05-10T00:22:47.101Z,80.22
2023-05-10T00:23:47.087Z,80.63
2023-05-10T00:24:47.135Z,80.43
2023-05-10T00:25:47.071Z,80.59
2023-05-10T00:26:47.088Z,80.19
2023-05-10T00:27:47.026Z,80.08
2023-05-10T00:28:47.010Z,79.88
2023-05-10T00:29:47.025Z,79.47
2023-05-10T00:30:47.063Z,79.27
2023-05-10T00:31:47.008Z,79.17
2023-05-10T00:32:47.022Z,79.38
2023-05-10T00:33:46.945Z,79.58
2023-05-10T00:34:46.966Z,79.27
2023-05-10T00:35:46.917Z,79.78
2023-05-10T00:36:46.920Z,79.47
2023-05-10T00:37:46.957Z,79.78
2023-05-10T00:38:46.910Z,79.27
2023-05-10T00:39:46.916Z,79.27
2023-05-10T00:40:46.857Z,79.38
2023-05-10T00:41:46.861Z,79.68
2023-05-10T00:42:46.832Z,79.47
2023-05-10T00:43:46.854Z,79.07
2023-05-10T00:44:46.820Z,78.97
2023-05-10T00:45:46.839Z,79.17
2023-05-10T00:46:46.783Z,79.88
2023-05-10T00:47:46.821Z,79.78
2023-05-10T00:48:46.777Z,79.88
2023-05-10T00:49:46.740Z,79.58
2023-05-10T00:50:46.750Z,79.78
2023-05-10T00:51:46.717Z,79.78
2023-05-10T00:52:46.704Z,80.19
2023-05-10T00:53:46.684Z,80.99
2023-05-10T00:54:46.690Z,81.54
2023-05-10T00:55:46.685Z,81.95
2023-05-10T00:56:46.641Z,82.35
2023-05-10T00:57:46.645Z,82.35
2023-05-10T00:58:46.643Z,83.17
2023-05-10T00:59:46.614Z,82.56
2023-05-10T01:00:46.610Z,82.76
2023-05-10T01:01:46.686Z,84.08
2023-05-10T01:02:46.626Z,84.38
2023-05-10T01:03:46.550Z,85.39
2023-05-10T01:04:46.589Z,84.93
2023-05-10T01:05:46.558Z,85.44
2023-05-10T01:06:46.511Z,85.03
2023-05-10T01:07:46.506Z,85.74
2023-05-10T01:08:46.508Z,85.94
2023-05-10T01:09:46.471Z,86.05
2023-05-10T01:10:46.494Z,86.35
2023-05-10T01:11:46.452Z,86.80
2023-05-10T01:12:46.504Z,87.30
2023-05-10T01:13:46.420Z,87.71
2023-05-10T01:14:46.420Z,88.01
2023-05-10T01:15:46.420Z,88.56
2023-05-10T01:16:46.386Z,88.67
2023-05-10T01:17:46.505Z,88.76
2023-05-10T01:18:46.363Z,88.16
2023-05-10T01:19:46.353Z,88.26
2023-05-10T01:20:46.324Z,88.16
2023-05-10T01:21:46.303Z,88.60
2023-05-10T01:22:46.331Z,89.01
2023-05-10T01:23:46.283Z,89.62
2023-05-10T01:24:46.351Z,89.52
2023-05-10T01:25:46.255Z,89.42
2023-05-10T01:26:46.243Z,89.72
2023-05-10T01:27:46.254Z,89.72
2023-05-10T01:28:46.264Z,90.13
2023-05-10T01:29:46.229Z,90.07
2023-05-10T01:30:46.192Z,90.88
2023-05-10T01:31:46.206Z,91.64
2023-05-10T01:32:46.224Z,92.25
2023-05-10T01:33:46.179Z,92.35
2023-05-10T01:34:46.125Z,92.25
2023-05-10T01:35:46.124Z,92.04
2023-05-10T01:36:46.123Z,92.04
2023-05-10T01:37:46.117Z,92.04
2023-05-10T01:38:46.073Z,91.94
2023-05-10T01:39:46.064Z,91.84
2023-05-10T01:40:46.057Z,91.84
2023-05-10T01:41:46.055Z,91.84
2023-05-10T01:42:46.073Z,91.84
2023-05-10T01:43:46.047Z,91.84
2023-05-10T01:44:46.000Z,92.10
2023-05-10T01:45:45.993Z,92.00
2023-05-10T01:46:46.065Z,91.80
2023-05-10T01:47:46.044Z,91.39
2023-05-10T01:48:45.951Z,91.39
2023-05-10T01:49:45.926Z,90.68
2023-05-10T01:50:45.923Z,90.88
2023-05-10T01:51:45.946Z,90.88
2023-05-10T01:52:45.894Z,90.58
2023-05-10T01:53:45.875Z,90.68
2023-05-10T01:54:45.878Z,90.78
2023-05-10T01:55:45.834Z,91.29
2023-05-10T01:56:45.851Z,90.99
2023-05-10T01:59:13.893Z,91.25
2023-05-10T01:59:19.239Z,91.55
2023-05-10T02:00:19.330Z,91.65
2023-05-10T02:01:19.309Z,92.36
2023-05-10T02:02:19.211Z,91.55
2023-05-10T02:03:19.219Z,90.74
2023-05-10T02:04:19.200Z,90.53
2023-05-10T02:05:19.208Z,90.33
2023-05-10T02:06:19.156Z,90.33
2023-05-10T02:07:19.147Z,90.64
2023-05-10T02:08:19.167Z,91.45
2023-05-10T02:09:19.110Z,91.45
2023-05-10T02:10:19.257Z,91.35
2023-05-10T02:11:19.095Z,91.05
2023-05-10T02:12:19.084Z,90.84
2023-05-10T02:13:19.137Z,91.19
2023-05-10T02:14:19.064Z,90.88
2023-05-10T02:15:19.048Z,91.69
2023-05-10T02:16:19.072Z,91.90
2023-05-10T02:17:19.016Z,92.00
2023-05-10T02:18:19.051Z,92.00
2023-05-10T02:19:18.979Z,92.61
2023-05-10T02:20:19.221Z,92.51
2023-05-10T02:21:18.952Z,92.51
2023-05-10T02:22:18.937Z,92.41
2023-05-10T02:23:18.925Z,92.30
2023-05-10T02:24:18.946Z,92.82
2023-05-10T02:25:19.010Z,92.96
2023-05-10T02:26:18.883Z,92.96
2023-05-10T02:27:18.861Z,93.16
2023-05-10T02:28:18.855Z,93.32
2023-05-10T02:29:18.876Z,92.91
2023-05-10T02:30:18.917Z,92.30
2023-05-10T02:31:18.831Z,92.00
2023-05-10T02:32:18.950Z,92.10
2023-05-10T02:33:18.789Z,92.30
2023-05-10T02:34:18.782Z,92.82
2023-05-10T02:35:18.793Z,93.12
2023-05-10T02:36:18.748Z,93.22
2023-05-10T02:37:18.750Z,92.82
2023-05-10T02:38:18.734Z,92.82
2023-05-10T02:39:18.711Z,92.91
2023-05-10T02:40:19.027Z,93.02
2023-05-10T02:41:18.681Z,92.51
2023-05-10T02:42:18.676Z,92.41
2023-05-10T02:43:18.674Z,92.00
2023-05-10T02:44:18.644Z,92.30
2023-05-10T02:45:18.645Z,92.45
2023-05-10T02:46:18.660Z,92.25
2023-05-10T02:47:18.614Z,92.25
2023-05-10T02:48:18.591Z,91.84
2023-05-10T02:49:18.604Z,91.53
2023-05-10T02:50:18.761Z,91.84
2023-05-10T02:51:18.609Z,91.94
2023-05-10T02:52:18.544Z,92.35
2023-05-10T02:53:18.540Z,92.96
2023-05-10T02:54:18.517Z,92.86
2023-05-10T02:55:18.495Z,92.55
2023-05-10T02:56:18.530Z,92.45
2023-05-10T02:57:18.523Z,92.35
2023-05-10T02:58:18.457Z,92.35
2023-05-10T02:59:18.531Z,92.45
2023-05-10T03:00:18.560Z,92.45
2023-05-10T03:01:18.440Z,92.45
2023-05-10T03:02:18.399Z,92.45
2023-05-10T03:03:18.420Z,92.35
2023-05-10T03:04:18.462Z,92.55
2023-05-10T03:05:18.352Z,92.55
2023-05-10T03:06:18.350Z,92.35
2023-05-10T03:07:18.329Z,92.04
2023-05-10T03:08:18.313Z,92.04
2023-05-10T03:09:18.337Z,91.84
2023-05-10T03:10:18.637Z,91.99
2023-05-10T03:11:18.336Z,92.29
2023-05-10T03:12:18.284Z,92.29
2023-05-10T03:13:18.326Z,92.49
2023-05-10T03:14:18.267Z,92.60
2023-05-10T03:15:18.236Z,92.40
2023-05-10T03:16:18.215Z,92.49
2023-05-10T03:17:18.202Z,92.60
2023-05-10T03:18:18.215Z,92.80
2023-05-10T03:19:18.163Z,93.01
2023-05-10T03:20:18.440Z,93.41
2023-05-10T03:21:18.146Z,93.62
2023-05-10T03:22:18.124Z,93.82
2023-05-10T03:23:18.135Z,93.92
2023-05-10T03:24:18.144Z,94.07
2023-05-10T03:25:18.097Z,93.86
2023-05-10T03:26:18.078Z,93.76
2023-05-10T03:27:18.069Z,93.86
2023-05-10T03:28:18.071Z,93.86
2023-05-10T03:29:18.069Z,93.76
2023-05-10T03:30:18.245Z,93.96
2023-05-10T03:31:18.046Z,94.17
2023-05-10T03:32:18.046Z,94.21
2023-05-10T03:33:17.986Z,94.72
2023-05-10T03:34:17.965Z,94.52
2023-05-10T03:35:17.987Z,94.27
2023-05-10T03:36:17.934Z,93.96
2023-05-10T03:37:17.934Z,93.96
2023-05-10T03:38:17.927Z,94.17
2023-05-10T03:39:17.938Z,94.27
2023-05-10T03:40:18.201Z,93.96
2023-05-10T03:41:17.898Z,94.27
2023-05-10T03:42:17.864Z,94.07
2023-05-10T03:43:17.866Z,94.17
2023-05-10T03:44:17.906Z,94.07
2023-05-10T03:45:17.816Z,93.96
2023-05-10T03:46:17.890Z,93.76
2023-05-10T03:47:17.826Z,93.66
2023-05-10T03:48:17.784Z,93.31
2023-05-10T03:49:17.774Z,93.51
2023-05-10T03:50:18.010Z,93.82
2023-05-10T03:51:17.751Z,93.71
2023-05-10T03:52:17.759Z,93.51
2023-05-10T03:53:17.736Z,93.51
2023-05-10T03:54:17.736Z,93.71
2023-05-10T03:55:17.678Z,93.92
2023-05-10T03:56:17.664Z,93.62
2023-05-10T03:57:17.695Z,93.10
2023-05-10T03:58:17.658Z,93.31
2023-05-10T03:59:17.636Z,93.01
2023-05-10T04:00:17.902Z,93.10
2023-05-10T04:01:17.616Z,93.21
2023-05-10T04:02:17.656Z,93.01
2023-05-10T04:03:17.694Z,93.62
2023-05-10T04:04:17.666Z,93.31
2023-05-10T04:05:17.540Z,93.62
2023-05-10T04:06:17.600Z,93.51
2023-05-10T04:07:17.532Z,94.17
2023-05-10T04:08:17.539Z,94.07
2023-05-10T04:09:17.517Z,94.07
2023-05-10T04:10:17.949Z,94.17
2023-05-10T04:11:17.472Z,94.68
2023-05-10T04:12:17.455Z,94.78
2023-05-10T04:13:17.494Z,94.57
2023-05-10T04:14:17.443Z,94.37
2023-05-10T04:15:17.418Z,94.27
2023-05-10T04:16:17.442Z,94.17
2023-05-10T04:17:17.436Z,93.96
2023-05-10T04:18:17.417Z,93.86
2023-05-10T04:19:17.379Z,93.96
2023-05-10T04:20:17.623Z,93.76
2023-05-10T04:21:17.387Z,93.66
2023-05-10T04:22:17.337Z,93.96
2023-05-10T04:23:17.322Z,93.86
2023-05-10T04:24:17.308Z,94.07
2023-05-10T04:25:17.325Z,94.17
2023-05-10T04:26:17.291Z,93.96
2023-05-10T04:27:17.336Z,94.07
2023-05-10T04:28:17.272Z,94.17
2023-05-10T04:29:17.258Z,94.27
2023-05-10T04:30:17.583Z,93.96
2023-05-10T04:31:17.215Z,93.66
2023-05-10T04:32:17.381Z,93.45
2023-05-10T04:33:17.196Z,93.45
2023-05-10T04:34:17.310Z,93.76
2023-05-10T04:35:17.162Z,93.86
2023-05-10T04:36:17.174Z,93.76
2023-05-10T04:37:17.129Z,94.07
2023-05-10T04:38:17.103Z,93.86
2023-05-10T04:39:17.152Z,93.70
2023-05-10T04:40:17.355Z,93.76
2023-05-10T04:41:17.092Z,94.27
2023-05-10T04:42:17.053Z,94.57
2023-05-10T04:43:17.045Z,94.88
2023-05-10T04:44:17.067Z,94.88
2023-05-10T04:45:17.049Z,94.88
2023-05-10T04:46:17.080Z,94.88
2023-05-10T04:47:16.997Z,94.68
2023-05-10T04:48:16.994Z,94.78
2023-05-10T04:49:16.955Z,94.88
2023-05-10T04:50:17.125Z,94.98
2023-05-10T04:51:16.965Z,95.18
2023-05-10T04:52:16.949Z,95.49
2023-05-10T04:53:16.919Z,95.59
2023-05-10T04:54:16.882Z,95.59
2023-05-10T04:55:16.923Z,95.39
2023-05-10T04:56:16.876Z,94.88
2023-05-10T04:57:16.876Z,94.88
2023-05-10T04:58:16.885Z,94.57
2023-05-10T04:59:16.851Z,94.57
2023-05-10T05:00:17.090Z,94.68
2023-05-10T05:01:16.852Z,94.88
2023-05-10T05:02:16.790Z,94.98
2023-05-10T05:03:16.883Z,95.08
2023-05-10T05:04:16.751Z,95.18
2023-05-10T05:05:16.743Z,95.43
2023-05-10T05:06:16.757Z,95.64
2023-05-10T05:07:16.739Z,96.04
2023-05-10T05:08:16.730Z,96.15
2023-05-10T05:09:16.695Z,96.60
2023-05-10T05:10:16.973Z,97.11
2023-05-10T05:11:16.688Z,97.31
2023-05-10T05:12:16.644Z,97.52
2023-05-10T05:13:16.656Z,97.62
2023-05-10T05:14:16.673Z,97.62
2023-05-10T05:15:16.645Z,97.62
2023-05-10T05:16:16.670Z,97.21
2023-05-10T05:17:16.632Z,97.31
2023-05-10T05:18:16.576Z,97.21
2023-05-10T05:19:16.642Z,97.06
2023-05-10T05:20:16.862Z,96.96
2023-05-10T05:21:16.574Z,96.96
2023-05-10T05:22:17.727Z,96.86
2023-05-10T05:23:16.510Z,96.66
2023-05-10T05:24:16.496Z,96.55
2023-05-10T05:25:16.485Z,96.55
2023-05-10T05:26:16.491Z,96.66
2023-05-10T05:27:16.485Z,96.61
2023-05-10T05:28:16.464Z,96.51
2023-05-10T05:29:16.430Z,96.41
2023-05-10T05:30:16.572Z,96.41
2023-05-10T05:31:16.458Z,96.20
2023-05-10T05:32:16.430Z,96.20
2023-05-10T05:33:16.463Z,96.20
2023-05-10T05:34:16.351Z,96.20
2023-05-10T05:35:16.568Z,96.20
2023-05-10T05:36:16.335Z,96.41
2023-05-10T05:37:16.381Z,96.30
2023-05-10T05:38:16.298Z,96.15
2023-05-10T05:39:16.293Z,96.26
2023-05-10T05:40:16.293Z,96.15
2023-05-10T05:41:16.279Z,96.36
2023-05-10T05:42:16.283Z,96.06
2023-05-10T05:43:16.230Z,95.75
2023-05-10T05:44:16.235Z,95.85
2023-05-10T05:45:16.453Z,95.95
2023-05-10T05:46:16.216Z,95.85
2023-05-10T05:47:16.216Z,95.34
2023-05-10T05:48:16.194Z,95.14
2023-05-10T05:49:16.156Z,95.14
2023-05-10T05:50:16.171Z,95.14
2023-05-10T05:51:16.132Z,95.14
2023-05-10T05:52:16.110Z,95.14
2023-05-10T05:53:16.121Z,95.24
2023-05-10T05:54:16.079Z,95.20
2023-05-10T05:55:16.343Z,95.50
2023-05-10T05:56:16.062Z,95.61
2023-05-10T05:57:16.100Z,95.70
2023-05-10T05:58:16.043Z,95.70
2023-05-10T05:59:16.075Z,96.01
2023-05-10T06:00:16.080Z,95.91
2023-05-10T06:01:15.992Z,95.50
2023-05-10T06:02:16.035Z,95.30
2023-05-10T06:03:16.020Z,95.00
2023-05-10T06:04:16.016Z,95.00
2023-05-10T06:05:16.107Z,95.09
2023-05-10T06:06:15.960Z,95.00
2023-05-10T06:07:15.963Z,95.40
2023-05-10T06:08:15.906Z,95.30
2023-05-10T06:09:15.957Z,95.09
2023-05-10T06:10:15.890Z,95.15
2023-05-10T06:11:15.864Z,94.85
2023-05-10T06:12:15.851Z,94.64
2023-05-10T06:13:15.870Z,94.54
2023-05-10T06:14:15.830Z,94.85
2023-05-10T06:15:16.085Z,94.74
2023-05-10T06:16:15.833Z,94.54
2023-05-10T06:17:15.796Z,94.95
2023-05-10T06:18:15.842Z,95.05
2023-05-10T06:19:15.762Z,94.74
2023-05-10T06:20:15.766Z,94.34
2023-05-10T06:21:15.716Z,94.44
2023-05-10T06:22:15.728Z,94.54
2023-05-10T06:23:15.736Z,94.54
2023-05-10T06:24:15.736Z,94.64
2023-05-10T06:25:15.906Z,94.54
2023-05-10T06:26:15.689Z,94.64
2023-05-10T06:27:15.657Z,94.24
2023-05-10T06:28:15.690Z,94.04
2023-05-10T06:29:15.630Z,94.74
2023-05-10T06:30:15.617Z,94.74
2023-05-10T06:31:15.607Z,94.80
2023-05-10T06:32:15.685Z,94.90
2023-05-10T06:33:15.593Z,94.70
2023-05-10T06:34:15.545Z,94.40
2023-05-10T06:35:15.747Z,94.20
2023-05-10T06:36:15.561Z,93.89
2023-05-10T06:37:15.520Z,94.50
2023-05-10T06:38:15.516Z,94.70
2023-05-10T06:39:15.490Z,94.70
2023-05-10T06:40:15.502Z,94.60
2023-05-10T06:41:15.520Z,94.70
2023-05-10T06:42:15.448Z,95.10
2023-05-10T06:43:15.453Z,95.21
2023-05-10T06:44:15.453Z,95.10
2023-05-10T06:45:15.865Z,94.90
2023-05-10T06:46:15.494Z,94.40
2023-05-10T06:47:15.372Z,94.29
2023-05-10T06:48:15.476Z,94.29
2023-05-10T06:49:15.377Z,94.50
2023-05-10T06:50:15.351Z,94.40
2023-05-10T06:51:15.365Z,94.29
2023-05-10T06:52:15.333Z,94.29
2023-05-10T06:53:15.299Z,94.09
2023-05-10T06:54:15.284Z,94.09
2023-05-10T06:55:15.448Z,94.40
2023-05-10T06:56:15.287Z,94.80
2023-05-10T06:57:27.474Z,94.50
2023-05-10T06:58:15.249Z,94.20
2023-05-10T06:59:15.293Z,94.20
2023-05-10T07:00:15.614Z,93.89
2023-05-10T07:01:15.325Z,93.73
2023-05-10T07:02:15.234Z,93.63
2023-05-10T07:03:15.232Z,93.32
2023-05-10T07:04:15.194Z,93.52
2023-05-10T07:05:15.225Z,93.43
2023-05-10T07:06:29.187Z,93.02
2023-05-10T07:07:15.142Z,92.30
2023-05-10T07:08:15.123Z,91.90
2023-05-10T07:09:15.078Z,92.10
2023-05-10T07:10:15.069Z,92.00
2023-05-10T07:11:15.067Z,93.02
2023-05-10T07:12:15.879Z,93.52
2023-05-10T07:13:15.148Z,93.43
2023-05-10T07:14:15.009Z,94.04
2023-05-10T07:15:15.292Z,93.83
2023-05-10T07:16:15.054Z,92.91
2023-05-10T07:17:15.043Z,92.71
2023-05-10T07:18:15.002Z,92.51
2023-05-10T07:19:14.963Z,91.80
2023-05-10T07:20:14.959Z,90.27
2023-05-10T07:21:15.031Z,90.68
2023-05-10T07:22:14.931Z,91.60
2023-05-10T07:23:14.934Z,91.49
2023-05-10T07:24:14.914Z,90.37
2023-05-10T07:25:15.077Z,90.07
2023-05-10T07:26:14.857Z,90.48
2023-05-10T07:27:14.838Z,90.68
2023-05-10T07:28:14.849Z,90.07
2023-05-10T07:29:14.851Z,89.76
2023-05-10T07:30:14.838Z,90.17
2023-05-10T07:31:14.784Z,90.37
2023-05-10T07:32:14.833Z,90.37
2023-05-10T07:33:14.826Z,90.88
2023-05-10T07:34:14.770Z,90.27
2023-05-10T07:35:15.013Z,89.66
2023-05-10T07:36:14.714Z,89.66
2023-05-10T07:37:14.719Z,89.97
2023-05-10T07:38:14.708Z,90.37
2023-05-10T07:39:18.614Z,89.97
2023-05-10T07:40:14.663Z,90.37
2023-05-10T07:41:14.651Z,90.99
2023-05-10T07:42:14.653Z,90.48
2023-05-10T07:43:14.653Z,90.17
2023-05-10T07:44:14.609Z,89.87
2023-05-10T07:45:14.773Z,89.76
2023-05-10T07:46:14.686Z,89.46
2023-05-10T07:47:14.576Z,89.36
2023-05-10T07:48:14.558Z,89.66
2023-05-10T07:49:14.542Z,89.56
2023-05-10T07:50:14.549Z,89.97
2023-05-10T07:51:14.550Z,90.07
2023-05-10T07:52:14.509Z,89.05
2023-05-10T07:53:14.492Z,88.65
2023-05-10T07:54:14.476Z,88.95
2023-05-10T07:55:14.596Z,89.36
2023-05-10T07:56:14.447Z,88.75
2023-05-10T07:57:14.429Z,89.00
2023-05-10T07:58:14.468Z,89.09
2023-05-10T07:59:14.404Z,89.81
2023-05-10T08:00:14.433Z,90.25
2023-05-10T08:01:14.416Z,89.95
2023-05-10T08:02:14.420Z,90.36
2023-05-10T08:03:14.491Z,90.66
2023-05-10T08:04:14.401Z,90.91
2023-05-10T08:05:14.458Z,90.91
2023-05-10T08:06:14.316Z,91.01
2023-05-10T08:07:14.329Z,90.81
2023-05-10T08:08:14.284Z,90.70
2023-05-10T08:09:14.273Z,91.01
2023-05-10T08:10:14.269Z,91.05
2023-05-10T08:11:14.272Z,91.26
2023-05-10T08:12:14.231Z,91.16
2023-05-10T08:13:14.219Z,90.85
2023-05-10T08:14:14.197Z,90.64
2023-05-10T08:15:14.231Z,90.55
2023-05-10T08:16:14.229Z,90.64
2023-05-10T08:17:14.183Z,90.44
2023-05-10T08:18:14.225Z,90.44
2023-05-10T08:19:14.133Z,90.34
2023-05-10T08:20:14.128Z,90.55
2023-05-10T08:21:14.103Z,90.75
2023-05-10T08:22:14.128Z,90.44
2023-05-10T08:23:14.120Z,90.85
2023-05-10T08:24:14.066Z,91.26
2023-05-10T08:25:14.065Z,91.16
2023-05-10T08:26:14.067Z,91.05
2023-05-10T08:27:14.040Z,90.95
2023-05-10T08:28:14.028Z,90.95
2023-05-10T08:29:14.020Z,90.75
2023-05-10T08:30:14.007Z,91.05
2023-05-10T08:31:13.996Z,91.36
2023-05-10T08:32:14.017Z,91.16
2023-05-10T08:33:13.975Z,90.64
2023-05-10T08:34:13.947Z,90.64
2023-05-10T08:35:14.025Z,91.26
2023-05-10T08:36:13.933Z,91.16
2023-05-10T08:37:14.096Z,91.05
2023-05-10T08:38:13.909Z,91.16
2023-05-10T08:39:23.351Z,91.05
2023-05-10T08:40:13.854Z,91.11
2023-05-10T08:41:13.854Z,91.31
2023-05-10T08:42:13.857Z,90.81
2023-05-10T08:43:13.823Z,91.01
2023-05-10T08:44:13.842Z,91.01
2023-05-10T08:45:13.798Z,90.91
2023-05-10T08:46:13.801Z,90.91
2023-05-10T08:47:13.886Z,90.91
2023-05-10T08:48:13.754Z,91.22
2023-05-10T08:49:13.742Z,91.31
2023-05-10T08:50:13.740Z,91.52
2023-05-10T08:51:13.736Z,91.11
2023-05-10T08:52:13.726Z,91.11
2023-05-10T08:53:13.684Z,91.01
2023-05-10T08:54:13.704Z,90.56
2023-05-10T08:55:13.670Z,90.56
2023-05-10T08:56:13.665Z,89.64
2023-05-10T08:57:13.662Z,90.36
2023-05-10T08:58:13.636Z,89.95
2023-05-10T08:59:13.643Z,88.46
2023-05-10T09:00:13.589Z,89.44
2023-05-10T09:01:13.635Z,87.71
2023-05-10T09:02:13.591Z,88.32
2023-05-10T09:03:13.556Z,88.73
2023-05-10T09:04:13.655Z,90.16
2023-05-10T09:05:13.614Z,88.42
2023-05-10T09:06:13.503Z,87.92
2023-05-10T09:07:13.528Z,88.63
2023-05-10T09:08:13.537Z,89.85
2023-05-10T09:09:13.477Z,90.25
2023-05-10T09:10:13.467Z,89.54
2023-05-10T09:11:13.489Z,87.81
2023-05-10T09:12:13.447Z,88.93
2023-05-10T09:13:13.423Z,89.03
2023-05-10T09:14:13.429Z,86.02
2023-05-10T09:15:13.435Z,86.83
2023-05-10T09:16:21.031Z,88.63
2023-05-10T09:17:13.451Z,89.59
2023-05-10T09:18:13.466Z,90.40
2023-05-10T09:19:13.422Z,89.79
2023-05-10T09:20:13.320Z,90.46
2023-05-10T09:21:13.319Z,89.64
2023-05-10T09:22:13.308Z,88.12
2023-05-10T09:23:13.278Z,88.53
2023-05-10T09:24:13.292Z,89.03
2023-05-10T09:25:13.353Z,90.22
2023-05-10T09:26:13.274Z,89.30
2023-05-10T09:27:13.239Z,88.69
2023-05-10T09:28:13.216Z,89.50
2023-05-10T09:29:15.144Z,88.48
2023-05-10T09:30:13.237Z,86.00
2023-05-10T09:31:13.227Z,83.36
2023-05-10T09:32:13.796Z,83.15
2023-05-10T09:33:13.162Z,82.54
2023-05-10T09:34:13.143Z,83.15
2023-05-10T09:35:13.120Z,84.38
2023-05-10T09:36:13.156Z,84.74
2023-05-10T09:37:13.099Z,84.95
2023-05-10T09:38:13.076Z,85.86
2023-05-10T09:39:13.075Z,88.06
2023-05-10T09:40:13.042Z,88.97
2023-05-10T09:41:13.050Z,87.51
2023-05-10T09:42:13.074Z,87.51
2023-05-10T09:43:13.019Z,87.10
2023-05-10T09:44:13.016Z,86.49
2023-05-10T09:45:13.071Z,86.45
2023-05-10T09:46:13.049Z,87.46
2023-05-10T09:47:12.990Z,86.25
2023-05-10T09:48:12.969Z,82.59
2023-05-10T09:49:12.942Z,81.78
2023-05-10T09:50:12.923Z,81.07
2023-05-10T09:51:12.913Z,80.77
2023-05-10T09:52:12.912Z,79.65
2023-05-10T09:53:12.898Z,79.85
2023-05-10T09:54:12.892Z,81.48
2023-05-10T09:55:12.860Z,80.26
2023-05-10T09:56:12.835Z,80.97
2023-05-10T09:57:12.863Z,80.87
2023-05-10T09:58:12.835Z,80.87
2023-05-10T09:59:12.807Z,81.38
2023-05-10T10:00:12.781Z,81.58
2023-05-10T10:01:12.871Z,81.74
2023-05-10T10:02:12.763Z,80.63
2023-05-10T10:03:12.873Z,79.41
2023-05-10T10:04:12.739Z,80.12
2023-05-10T10:05:12.785Z,78.97
2023-05-10T10:06:26.436Z,79.78
2023-05-10T10:07:12.704Z,80.49
2023-05-10T10:08:12.714Z,81.24
2023-05-10T10:09:12.660Z,81.34
2023-05-10T10:10:12.653Z,79.72
2023-05-10T10:11:12.658Z,80.43
2023-05-10T10:12:12.625Z,79.31
2023-05-10T10:13:12.640Z,79.72
2023-05-10T10:14:12.638Z,79.21
2023-05-10T10:15:14.033Z,78.53
2023-05-10T10:16:12.616Z,78.23
2023-05-10T10:17:12.587Z,78.44
2023-05-10T10:18:12.571Z,80.46
2023-05-10T10:19:12.550Z,76.78
2023-05-10T10:20:12.529Z,76.27
2023-05-10T10:21:12.498Z,76.98
2023-05-10T10:22:12.524Z,80.63
2023-05-10T10:23:12.926Z,81.74
2023-05-10T10:24:12.473Z,80.73
2023-05-10T10:25:12.463Z,82.45
2023-05-10T10:26:12.466Z,81.64
2023-05-10T10:27:12.435Z,82.35
2023-05-10T10:28:12.411Z,83.67
2023-05-10T10:29:12.421Z,83.87
2023-05-10T10:30:12.394Z,84.08
2023-05-10T10:31:12.380Z,83.98
2023-05-10T10:32:12.388Z,84.69
2023-05-10T10:33:20.550Z,85.09
2023-05-10T10:34:12.369Z,86.10
2023-05-10T10:35:12.309Z,86.10
2023-05-10T10:36:12.302Z,84.89
2023-05-10T10:37:12.358Z,84.93
2023-05-10T10:38:12.304Z,85.03
2023-05-10T10:39:12.303Z,85.33
2023-05-10T10:40:12.269Z,85.33
2023-05-10T10:41:12.262Z,85.24
2023-05-10T10:42:12.258Z,86.08
2023-05-10T10:43:12.243Z,87.00
2023-05-10T10:44:12.213Z,86.90
2023-05-10T10:45:12.190Z,86.90
2023-05-10T10:46:12.248Z,86.69
2023-05-10T10:47:12.337Z,87.51
2023-05-10T10:48:12.206Z,88.21
2023-05-10T10:49:12.119Z,88.32
2023-05-10T10:50:12.125Z,87.20
2023-05-10T10:51:12.985Z,87.81
2023-05-10T10:52:12.090Z,87.65
2023-05-10T10:53:12.165Z,88.06
2023-05-10T10:54:12.098Z,87.81
2023-05-10T10:55:12.095Z,87.51
2023-05-10T10:56:12.049Z,86.49
2023-05-10T10:57:12.020Z,85.38
2023-05-10T10:58:12.017Z,84.87
2023-05-10T10:59:12.013Z,84.77
2023-05-10T11:00:12.009Z,84.87
2023-05-10T11:01:12.059Z,85.58
2023-05-10T11:02:11.999Z,85.98
2023-05-10T11:03:12.027Z,86.59
2023-05-10T11:04:12.057Z,86.49
2023-05-10T11:05:11.934Z,86.19
2023-05-10T11:06:11.915Z,87.00
2023-05-10T11:07:11.928Z,84.66
2023-05-10T11:08:11.873Z,85.17
2023-05-10T11:09:11.901Z,84.16
2023-05-10T11:10:11.935Z,83.65
2023-05-10T11:11:11.850Z,83.75
2023-05-10T11:12:11.827Z,84.46
2023-05-10T11:13:11.809Z,84.05
2023-05-10T11:14:11.812Z,83.95
2023-05-10T11:15:11.802Z,84.01
2023-05-10T11:16:11.903Z,83.91
2023-05-10T11:17:11.871Z,82.70
2023-05-10T11:18:11.792Z,83.00
2023-05-10T11:19:11.792Z,81.88
2023-05-10T11:20:11.717Z,80.97
2023-05-10T11:21:11.787Z,80.66
2023-05-10T11:22:11.707Z,81.88
2023-05-10T11:23:11.695Z,83.00
2023-05-10T11:24:11.678Z,82.29
2023-05-10T11:25:11.686Z,81.48
2023-05-10T11:26:11.634Z,80.97
2023-05-10T11:27:11.619Z,78.74
2023-05-10T11:28:11.624Z,79.90
2023-05-10T11:29:11.683Z,81.62
2023-05-10T11:30:11.596Z,81.52
2023-05-10T11:31:11.619Z,82.03
2023-05-10T11:32:11.566Z,83.54
2023-05-10T11:33:11.550Z,82.94
2023-05-10T11:34:11.529Z,83.45
2023-05-10T11:35:11.515Z,83.75
2023-05-10T11:36:11.535Z,83.95
2023-05-10T11:37:11.528Z,83.54
2023-05-10T11:38:11.502Z,84.05
2023-05-10T11:39:11.464Z,84.97
2023-05-10T11:40:11.498Z,85.17
2023-05-10T11:41:11.458Z,86.29
2023-05-10T11:42:11.455Z,86.19
2023-05-10T11:43:11.420Z,86.90
2023-05-10T11:44:11.397Z,86.39
2023-05-10T11:45:11.387Z,86.39
2023-05-10T11:46:11.433Z,85.98
2023-05-10T11:47:11.383Z,85.38
2023-05-10T11:48:11.383Z,85.38
2023-05-10T11:49:11.331Z,84.52
2023-05-10T11:50:11.330Z,85.33
2023-05-10T11:51:11.322Z,85.13
2023-05-10T11:52:11.295Z,84.32
2023-05-10T11:53:11.277Z,85.03
2023-05-10T11:54:11.270Z,85.74
2023-05-10T11:55:11.338Z,85.13
2023-05-10T11:56:11.306Z,85.47
2023-05-10T11:57:11.241Z,84.36
2023-05-10T11:58:11.266Z,84.77
2023-05-10T11:59:11.224Z,84.36
2023-05-10T12:00:11.213Z,84.26
2023-05-10T12:01:11.171Z,83.95
2023-05-10T12:02:11.153Z,85.07
2023-05-10T12:03:11.260Z,87.30
2023-05-10T12:04:11.313Z,85.38
2023-05-10T12:05:11.210Z,84.97
2023-05-10T12:06:11.119Z,84.16
2023-05-10T12:07:11.133Z,84.16
2023-05-10T12:08:11.142Z,84.77
2023-05-10T12:09:11.097Z,84.05
2023-05-10T12:10:11.081Z,83.75
2023-05-10T12:11:11.084Z,85.33
2023-05-10T12:12:11.061Z,85.24
2023-05-10T12:13:11.026Z,84.93
2023-05-10T12:14:10.998Z,83.61
2023-05-10T12:15:10.995Z,83.10
2023-05-10T12:16:11.037Z,83.47
2023-05-10T12:17:10.969Z,83.57
2023-05-10T12:18:10.994Z,81.68
2023-05-10T12:19:11.032Z,81.68
2023-05-10T12:20:10.934Z,81.92
2023-05-10T12:21:10.943Z,84.16
2023-05-10T12:22:10.895Z,85.44
2023-05-10T12:23:10.919Z,85.24
2023-05-10T12:24:10.860Z,85.94
2023-05-10T12:25:10.870Z,85.84
2023-05-10T12:26:10.863Z,88.44
2023-05-10T12:27:10.950Z,87.93
2023-05-10T12:28:10.899Z,87.93
2023-05-10T12:29:10.810Z,86.51
2023-05-10T12:30:10.802Z,86.16
2023-05-10T12:31:10.788Z,85.86
2023-05-10T12:32:10.860Z,84.34
2023-05-10T12:33:10.948Z,84.64
2023-05-10T12:34:10.745Z,82.52
2023-05-10T12:35:10.718Z,84.55
2023-05-10T12:36:10.707Z,83.43
2023-05-10T12:37:10.719Z,82.01
2023-05-10T12:38:10.671Z,83.03
2023-05-10T12:39:10.681Z,83.90
2023-05-10T12:40:10.669Z,82.98
2023-05-10T12:41:10.665Z,83.18
2023-05-10T12:42:10.676Z,83.90
2023-05-10T12:43:10.645Z,83.29
2023-05-10T12:44:10.631Z,83.49
2023-05-10T12:45:10.614Z,81.87
2023-05-10T12:46:10.670Z,80.25
2023-05-10T12:47:10.592Z,79.44
2023-05-10T12:48:10.632Z,79.44
2023-05-10T12:49:10.567Z,79.64
2023-05-10T12:50:10.544Z,80.65
2023-05-10T12:51:10.509Z,81.87
2023-05-10T12:52:10.513Z,83.09
2023-05-10T12:53:10.508Z,84.61